sensor_id;sensor_type;location;lat;lon;timestamp;P1;durP1;ratioP1;P2;durP2;ratioP2
59974;SDS011;62136;-35.664;-63.766;2022-09-12T00:01:54;6.13;;;5.53;;
59974;SDS011;62136;-35.664;-63.766;2022-09-12T00:04:21;6.88;;;5.32;;
59974;SDS011;62136;-35.664;-63.766;2022-09-12T00:06:48;6.40;;;5.65;;
59974;SDS011;62136;-35.664;-63.766;2022-09-12T00:09:15;6.25;;;5.32;;
59974;SDS011;62136;-35.664;-63.766;2022-09-12T00:11:43;7.97;;;5.72;;
59974;SDS011;62136;-35.664;-63.766;2022-09-12T00:14:12;5.50;;;4.93;;
59974;SDS011;62136;-35.664;-63.766;2022-09-12T00:16:41;6.95;;;5.22;;
59974;SDS011;62136;-35.664;-63.766;2022-09-12T00:19:09;5.10;;;4.60;;
59974;SDS011;62136;-35.664;-63.766;2022-09-12T00:21:37;7.00;;;5.35;;
59974;SDS011;62136;-35.664;-63.766;2022-09-12T00:24:05;7.32;;;5.07;;
59974;SDS011;62136;-35.664;-63.766;2022-09-12T00:26:33;7.07;;;4.80;;
59974;SDS011;62136;-35.664;-63.766;2022-09-12T00:29:01;6.68;;;4.80;;
59974;SDS011;62136;-35.664;-63.766;2022-09-12T00:31:28;5.75;;;5.15;;
59974;SDS011;62136;-35.664;-63.766;2022-09-12T00:33:56;8.07;;;5.22;;
59974;SDS011;62136;-35.664;-63.766;2022-09-12T00:36:25;6.40;;;4.88;;
59974;SDS011;62136;-35.664;-63.766;2022-09-12T00:38:54;5.80;;;5.20;;
59974;SDS011;62136;-35.664;-63.766;2022-09-12T00:41:39;6.20;;;4.70;;
59974;SDS011;62136;-35.664;-63.766;2022-09-12T00:49:54;6.38;;;5.20;;
59974;SDS011;62136;-35.664;-63.766;2022-09-12T00:52:43;6.03;;;4.85;;
59974;SDS011;62136;-35.664;-63.766;2022-09-12T00:55:21;8.02;;;5.38;;
59974;SDS011;62136;-35.664;-63.766;2022-09-12T00:57:53;5.55;;;4.30;;
59974;SDS011;62136;-35.664;-63.766;2022-09-12T01:00:22;5.65;;;4.30;;
59974;SDS011;62136;-35.664;-63.766;2022-09-12T01:03:10;4.75;;;4.25;;
59974;SDS011;62136;-35.664;-63.766;2022-09-12T01:05:43;7.82;;;5.10;;
59974;SDS011;62136;-35.664;-63.766;2022-09-12T01:08:20;5.25;;;4.28;;
59974;SDS011;62136;-35.664;-63.766;2022-09-12T01:10:48;5.57;;;4.30;;
59974;SDS011;62136;-35.664;-63.766;2022-09-12T01:13:18;4.85;;;4.13;;
59974;SDS011;62136;-35.664;-63.766;2022-09-12T01:15:45;5.30;;;4.80;;
59974;SDS011;62136;-35.664;-63.766;2022-09-12T01:18:15;5.22;;;4.40;;
59974;SDS011;62136;-35.664;-63.766;2022-09-12T01:29:26;5.78;;;4.88;;
59974;SDS011;62136;-35.664;-63.766;2022-09-12T01:39:59;6.72;;;4.70;;
59974;SDS011;62136;-35.664;-63.766;2022-09-12T01:42:32;4.43;;;4.03;;
59974;SDS011;62136;-35.664;-63.766;2022-09-12T01:51:31;5.38;;;4.03;;
59974;SDS011;62136;-35.664;-63.766;2022-09-12T01:54:03;5.70;;;4.45;;
59974;SDS011;62136;-35.664;-63.766;2022-09-12T01:56:54;4.32;;;3.92;;
59974;SDS011;62136;-35.664;-63.766;2022-09-12T01:59:35;5.32;;;3.78;;
59974;SDS011;62136;-35.664;-63.766;2022-09-12T02:02:13;6.68;;;4.25;;
59974;SDS011;62136;-35.664;-63.766;2022-09-12T02:07:35;5.45;;;4.03;;
59974;SDS011;62136;-35.664;-63.766;2022-09-12T02:10:17;5.77;;;3.90;;
59974;SDS011;62136;-35.664;-63.766;2022-09-12T02:12:56;5.50;;;4.00;;
59974;SDS011;62136;-35.664;-63.766;2022-09-12T02:16:03;4.72;;;4.00;;
59974;SDS011;62136;-35.664;-63.766;2022-09-12T02:18:24;4.10;;;3.70;;
59974;SDS011;62136;-35.664;-63.766;2022-09-12T02:20:54;6.57;;;4.20;;
59974;SDS011;62136;-35.664;-63.766;2022-09-12T02:23:24;5.15;;;4.43;;
59974;SDS011;62136;-35.664;-63.766;2022-09-12T02:25:59;4.95;;;3.53;;
59974;SDS011;62136;-35.664;-63.766;2022-09-12T02:28:37;4.32;;;3.80;;
59974;SDS011;62136;-35.664;-63.766;2022-09-12T02:33:42;4.60;;;4.13;;
59974;SDS011;62136;-35.664;-63.766;2022-09-12T02:36:28;4.78;;;3.45;;
59974;SDS011;62136;-35.664;-63.766;2022-09-12T02:39:10;5.95;;;4.60;;
59974;SDS011;62136;-35.664;-63.766;2022-09-12T02:41:37;6.50;;;4.40;;
59974;SDS011;62136;-35.664;-63.766;2022-09-12T02:44:04;5.78;;;3.58;;
59974;SDS011;62136;-35.664;-63.766;2022-09-12T02:46:32;3.95;;;3.50;;
59974;SDS011;62136;-35.664;-63.766;2022-09-12T02:49:10;5.07;;;3.80;;
59974;SDS011;62136;-35.664;-63.766;2022-09-12T02:51:40;5.30;;;4.05;;
59974;SDS011;62136;-35.664;-63.766;2022-09-12T02:54:07;4.07;;;3.67;;
59974;SDS011;62136;-35.664;-63.766;2022-09-12T02:56:39;5.03;;;4.03;;
59974;SDS011;62136;-35.664;-63.766;2022-09-12T02:59:09;4.60;;;3.53;;
59974;SDS011;62136;-35.664;-63.766;2022-09-12T03:12:52;4.13;;;3.63;;
59974;SDS011;62136;-35.664;-63.766;2022-09-12T03:15:39;4.20;;;3.58;;
59974;SDS011;62136;-35.664;-63.766;2022-09-12T03:29:16;4.72;;;3.50;;
59974;SDS011;62136;-35.664;-63.766;2022-09-12T03:31:48;4.95;;;3.67;;
59974;SDS011;62136;-35.664;-63.766;2022-09-12T03:34:20;4.57;;;3.35;;
59974;SDS011;62136;-35.664;-63.766;2022-09-12T03:36:50;3.70;;;3.40;;
59974;SDS011;62136;-35.664;-63.766;2022-09-12T03:39:20;5.13;;;3.45;;
59974;SDS011;62136;-35.664;-63.766;2022-09-12T03:41:52;4.80;;;4.07;;
59974;SDS011;62136;-35.664;-63.766;2022-09-12T03:44:20;3.80;;;3.15;;
59974;SDS011;62136;-35.664;-63.766;2022-09-12T03:46:48;3.65;;;3.20;;
59974;SDS011;62136;-35.664;-63.766;2022-09-12T03:49:15;3.97;;;2.95;;
59974;SDS011;62136;-35.664;-63.766;2022-09-12T03:51:43;4.40;;;3.08;;
59974;SDS011;62136;-35.664;-63.766;2022-09-12T03:54:10;3.95;;;3.38;;
59974;SDS011;62136;-35.664;-63.766;2022-09-12T03:56:37;4.68;;;3.35;;
59974;SDS011;62136;-35.664;-63.766;2022-09-12T03:59:06;3.17;;;2.88;;
59974;SDS011;62136;-35.664;-63.766;2022-09-12T04:01:33;3.55;;;3.25;;
59974;SDS011;62136;-35.664;-63.766;2022-09-12T04:04:02;3.40;;;3.03;;
59974;SDS011;62136;-35.664;-63.766;2022-09-12T04:06:29;3.50;;;3.20;;
59974;SDS011;62136;-35.664;-63.766;2022-09-12T04:08:56;3.60;;;3.22;;
59974;SDS011;62136;-35.664;-63.766;2022-09-12T04:11:23;4.15;;;3.10;;
59974;SDS011;62136;-35.664;-63.766;2022-09-12T04:13:50;3.70;;;3.40;;
59974;SDS011;62136;-35.664;-63.766;2022-09-12T04:16:17;3.35;;;2.75;;
59974;SDS011;62136;-35.664;-63.766;2022-09-12T04:18:44;4.15;;;2.95;;
59974;SDS011;62136;-35.664;-63.766;2022-09-12T04:21:15;4.10;;;3.33;;
59974;SDS011;62136;-35.664;-63.766;2022-09-12T04:23:46;2.95;;;2.72;;
59974;SDS011;62136;-35.664;-63.766;2022-09-12T04:26:13;3.45;;;3.05;;
59974;SDS011;62136;-35.664;-63.766;2022-09-12T04:28:42;4.55;;;2.90;;
59974;SDS011;62136;-35.664;-63.766;2022-09-12T04:31:11;3.17;;;2.88;;
59974;SDS011;62136;-35.664;-63.766;2022-09-12T04:33:42;3.45;;;3.15;;
59974;SDS011;62136;-35.664;-63.766;2022-09-12T04:36:11;4.50;;;3.40;;
59974;SDS011;62136;-35.664;-63.766;2022-09-12T04:38:41;3.53;;;2.95;;
59974;SDS011;62136;-35.664;-63.766;2022-09-12T04:41:10;3.50;;;3.20;;
59974;SDS011;62136;-35.664;-63.766;2022-09-12T04:43:39;4.63;;;3.00;;
59974;SDS011;62136;-35.664;-63.766;2022-09-12T04:46:10;3.17;;;2.50;;
59974;SDS011;62136;-35.664;-63.766;2022-09-12T04:48:37;4.97;;;2.85;;
59974;SDS011;62136;-35.664;-63.766;2022-09-12T04:51:15;2.83;;;2.63;;
59974;SDS011;62136;-35.664;-63.766;2022-09-12T04:53:47;3.28;;;2.97;;
59974;SDS011;62136;-35.664;-63.766;2022-09-12T04:56:17;4.82;;;2.70;;
59974;SDS011;62136;-35.664;-63.766;2022-09-12T04:58:45;4.07;;;2.90;;
59974;SDS011;62136;-35.664;-63.766;2022-09-12T05:01:16;3.75;;;3.08;;
59974;SDS011;62136;-35.664;-63.766;2022-09-12T05:03:45;3.17;;;2.88;;
59974;SDS011;62136;-35.664;-63.766;2022-09-12T05:06:14;3.83;;;3.20;;
59974;SDS011;62136;-35.664;-63.766;2022-09-12T05:08:49;3.20;;;2.90;;
59974;SDS011;62136;-35.664;-63.766;2022-09-12T05:11:18;3.75;;;2.75;;
59974;SDS011;62136;-35.664;-63.766;2022-09-12T05:13:47;3.63;;;2.90;;
59974;SDS011;62136;-35.664;-63.766;2022-09-12T05:16:14;3.22;;;2.90;;
59974;SDS011;62136;-35.664;-63.766;2022-09-12T05:18:43;3.42;;;2.75;;
59974;SDS011;62136;-35.664;-63.766;2022-09-12T05:21:12;3.38;;;2.88;;
59974;SDS011;62136;-35.664;-63.766;2022-09-12T05:23:40;2.75;;;2.53;;
59974;SDS011;62136;-35.664;-63.766;2022-09-12T05:26:10;2.95;;;2.55;;
59974;SDS011;62136;-35.664;-63.766;2022-09-12T05:28:40;3.03;;;2.50;;
59974;SDS011;62136;-35.664;-63.766;2022-09-12T05:31:11;3.55;;;2.67;;
59974;SDS011;62136;-35.664;-63.766;2022-09-12T05:33:39;4.65;;;2.80;;
59974;SDS011;62136;-35.664;-63.766;2022-09-12T05:36:11;3.22;;;2.92;;
59974;SDS011;62136;-35.664;-63.766;2022-09-12T05:38:44;3.00;;;2.70;;
59974;SDS011;62136;-35.664;-63.766;2022-09-12T05:41:12;3.42;;;2.83;;
59974;SDS011;62136;-35.664;-63.766;2022-09-12T05:43:41;3.08;;;2.63;;
59974;SDS011;62136;-35.664;-63.766;2022-09-12T05:46:10;3.60;;;2.88;;
59974;SDS011;62136;-35.664;-63.766;2022-09-12T05:48:42;3.38;;;2.90;;
59974;SDS011;62136;-35.664;-63.766;2022-09-12T05:51:14;3.00;;;2.70;;
59974;SDS011;62136;-35.664;-63.766;2022-09-12T05:53:47;2.97;;;2.78;;
59974;SDS011;62136;-35.664;-63.766;2022-09-12T05:56:18;2.95;;;2.65;;
59974;SDS011;62136;-35.664;-63.766;2022-09-12T05:58:57;3.47;;;2.53;;
59974;SDS011;62136;-35.664;-63.766;2022-09-12T06:01:39;4.40;;;2.92;;
59974;SDS011;62136;-35.664;-63.766;2022-09-12T06:04:06;3.05;;;2.80;;
59974;SDS011;62136;-35.664;-63.766;2022-09-12T06:06:42;3.30;;;2.67;;
59974;SDS011;62136;-35.664;-63.766;2022-09-12T06:09:11;3.00;;;2.70;;
59974;SDS011;62136;-35.664;-63.766;2022-09-12T06:11:41;3.75;;;2.95;;
59974;SDS011;62136;-35.664;-63.766;2022-09-12T06:14:10;2.92;;;2.60;;
59974;SDS011;62136;-35.664;-63.766;2022-09-12T06:16:38;3.22;;;2.78;;
59974;SDS011;62136;-35.664;-63.766;2022-09-12T06:19:06;3.80;;;2.38;;
59974;SDS011;62136;-35.664;-63.766;2022-09-12T06:21:41;3.08;;;2.85;;
59974;SDS011;62136;-35.664;-63.766;2022-09-12T06:24:08;2.65;;;2.40;;
59974;SDS011;62136;-35.664;-63.766;2022-09-12T06:26:35;4.25;;;2.72;;
59974;SDS011;62136;-35.664;-63.766;2022-09-12T06:29:03;4.55;;;2.60;;
59974;SDS011;62136;-35.664;-63.766;2022-09-12T06:31:31;2.60;;;2.40;;
59974;SDS011;62136;-35.664;-63.766;2022-09-12T06:34:01;4.65;;;2.70;;
59974;SDS011;62136;-35.664;-63.766;2022-09-12T06:36:31;2.70;;;2.50;;
59974;SDS011;62136;-35.664;-63.766;2022-09-12T06:39:02;2.60;;;2.40;;
59974;SDS011;62136;-35.664;-63.766;2022-09-12T06:41:32;3.60;;;2.70;;
59974;SDS011;62136;-35.664;-63.766;2022-09-12T06:43:59;3.40;;;2.85;;
59974;SDS011;62136;-35.664;-63.766;2022-09-12T06:46:27;3.10;;;2.80;;
59974;SDS011;62136;-35.664;-63.766;2022-09-12T06:48:55;3.85;;;2.50;;
59974;SDS011;62136;-35.664;-63.766;2022-09-12T06:51:24;2.70;;;2.50;;
59974;SDS011;62136;-35.664;-63.766;2022-09-12T06:53:53;3.20;;;2.90;;
59974;SDS011;62136;-35.664;-63.766;2022-09-12T06:56:22;3.35;;;2.65;;
59974;SDS011;62136;-35.664;-63.766;2022-09-12T06:58:51;3.45;;;2.55;;
59974;SDS011;62136;-35.664;-63.766;2022-09-12T07:01:24;3.63;;;2.83;;
59974;SDS011;62136;-35.664;-63.766;2022-09-12T07:03:54;3.72;;;2.50;;
59974;SDS011;62136;-35.664;-63.766;2022-09-12T07:06:26;2.80;;;2.60;;
59974;SDS011;62136;-35.664;-63.766;2022-09-12T07:08:58;2.85;;;2.55;;
59974;SDS011;62136;-35.664;-63.766;2022-09-12T07:11:28;2.90;;;2.45;;
59974;SDS011;62136;-35.664;-63.766;2022-09-12T07:13:57;2.92;;;2.58;;
59974;SDS011;62136;-35.664;-63.766;2022-09-12T07:16:25;3.15;;;2.58;;
59974;SDS011;62136;-35.664;-63.766;2022-09-12T07:18:55;2.78;;;2.30;;
59974;SDS011;62136;-35.664;-63.766;2022-09-12T07:21:24;3.10;;;2.78;;
59974;SDS011;62136;-35.664;-63.766;2022-09-12T07:23:51;2.90;;;2.60;;
59974;SDS011;62136;-35.664;-63.766;2022-09-12T07:26:25;3.00;;;2.50;;
59974;SDS011;62136;-35.664;-63.766;2022-09-12T07:28:53;2.47;;;2.28;;
59974;SDS011;62136;-35.664;-63.766;2022-09-12T07:31:22;2.70;;;2.50;;
59974;SDS011;62136;-35.664;-63.766;2022-09-12T07:33:50;2.70;;;2.50;;
59974;SDS011;62136;-35.664;-63.766;2022-09-12T07:36:18;3.30;;;2.35;;
59974;SDS011;62136;-35.664;-63.766;2022-09-12T07:38:47;3.28;;;2.40;;
59974;SDS011;62136;-35.664;-63.766;2022-09-12T07:41:21;2.83;;;2.30;;
59974;SDS011;62136;-35.664;-63.766;2022-09-12T07:43:53;2.35;;;2.15;;
59974;SDS011;62136;-35.664;-63.766;2022-09-12T07:46:21;2.35;;;2.10;;
59974;SDS011;62136;-35.664;-63.766;2022-09-12T07:48:53;2.97;;;2.67;;
59974;SDS011;62136;-35.664;-63.766;2022-09-12T07:51:22;3.95;;;2.63;;
59974;SDS011;62136;-35.664;-63.766;2022-09-12T07:53:50;2.70;;;2.42;;
59974;SDS011;62136;-35.664;-63.766;2022-09-12T07:56:17;3.67;;;2.50;;
59974;SDS011;62136;-35.664;-63.766;2022-09-12T07:58:45;3.65;;;2.47;;
59974;SDS011;62136;-35.664;-63.766;2022-09-12T08:01:20;2.78;;;2.33;;
59974;SDS011;62136;-35.664;-63.766;2022-09-12T08:03:53;2.30;;;2.10;;
59974;SDS011;62136;-35.664;-63.766;2022-09-12T08:06:23;3.40;;;2.55;;
59974;SDS011;62136;-35.664;-63.766;2022-09-12T08:08:51;2.95;;;2.60;;
59974;SDS011;62136;-35.664;-63.766;2022-09-12T08:11:23;2.80;;;2.50;;
59974;SDS011;62136;-35.664;-63.766;2022-09-12T08:13:52;2.47;;;2.25;;
59974;SDS011;62136;-35.664;-63.766;2022-09-12T08:16:26;2.65;;;2.45;;
59974;SDS011;62136;-35.664;-63.766;2022-09-12T08:18:55;3.08;;;2.20;;
59974;SDS011;62136;-35.664;-63.766;2022-09-12T08:21:24;3.30;;;2.15;;
59974;SDS011;62136;-35.664;-63.766;2022-09-12T08:23:57;2.72;;;2.28;;
59974;SDS011;62136;-35.664;-63.766;2022-09-12T08:26:25;3.20;;;2.15;;
59974;SDS011;62136;-35.664;-63.766;2022-09-12T08:28:53;2.28;;;2.00;;
59974;SDS011;62136;-35.664;-63.766;2022-09-12T08:31:20;2.58;;;2.25;;
59974;SDS011;62136;-35.664;-63.766;2022-09-12T08:33:49;2.35;;;2.15;;
59974;SDS011;62136;-35.664;-63.766;2022-09-12T08:38:46;2.50;;;2.30;;
59974;SDS011;62136;-35.664;-63.766;2022-09-12T08:49:32;2.10;;;1.90;;
59974;SDS011;62136;-35.664;-63.766;2022-09-12T08:55:15;2.83;;;1.90;;
59974;SDS011;62136;-35.664;-63.766;2022-09-12T08:57:49;2.15;;;1.95;;
59974;SDS011;62136;-35.664;-63.766;2022-09-12T09:00:17;2.42;;;2.22;;
59974;SDS011;62136;-35.664;-63.766;2022-09-12T09:08:34;2.50;;;2.30;;
59974;SDS011;62136;-35.664;-63.766;2022-09-12T09:17:15;2.05;;;1.85;;
59974;SDS011;62136;-35.664;-63.766;2022-09-12T09:20:06;2.20;;;2.00;;
59974;SDS011;62136;-35.664;-63.766;2022-09-12T09:22:50;2.10;;;1.90;;
59974;SDS011;62136;-35.664;-63.766;2022-09-12T09:28:30;2.50;;;2.13;;
59974;SDS011;62136;-35.664;-63.766;2022-09-12T09:31:18;2.55;;;2.35;;
59974;SDS011;62136;-35.664;-63.766;2022-09-12T09:33:51;2.20;;;2.00;;
59974;SDS011;62136;-35.664;-63.766;2022-09-12T09:39:08;2.13;;;1.92;;
59974;SDS011;62136;-35.664;-63.766;2022-09-12T09:41:50;2.45;;;2.00;;
59974;SDS011;62136;-35.664;-63.766;2022-09-12T09:44:17;2.05;;;1.88;;
59974;SDS011;62136;-35.664;-63.766;2022-09-12T09:46:46;2.65;;;2.20;;
59974;SDS011;62136;-35.664;-63.766;2022-09-12T09:49:15;2.50;;;1.83;;
59974;SDS011;62136;-35.664;-63.766;2022-09-12T09:51:43;1.90;;;1.80;;
59974;SDS011;62136;-35.664;-63.766;2022-09-12T10:03:02;2.30;;;2.10;;
59974;SDS011;62136;-35.664;-63.766;2022-09-12T10:05:49;2.45;;;1.90;;
59974;SDS011;62136;-35.664;-63.766;2022-09-12T10:08:20;2.33;;;1.90;;
59974;SDS011;62136;-35.664;-63.766;2022-09-12T10:10:54;2.63;;;2.00;;
59974;SDS011;62136;-35.664;-63.766;2022-09-12T10:13:34;1.92;;;1.70;;
59974;SDS011;62136;-35.664;-63.766;2022-09-12T10:16:06;2.00;;;1.80;;
59974;SDS011;62136;-35.664;-63.766;2022-09-12T10:18:45;2.35;;;1.83;;
59974;SDS011;62136;-35.664;-63.766;2022-09-12T10:21:20;2.20;;;2.00;;
59974;SDS011;62136;-35.664;-63.766;2022-09-12T10:26:51;2.75;;;2.03;;
59974;SDS011;62136;-35.664;-63.766;2022-09-12T10:29:59;2.63;;;2.30;;
59974;SDS011;62136;-35.664;-63.766;2022-09-12T10:32:36;3.80;;;2.08;;
59974;SDS011;62136;-35.664;-63.766;2022-09-12T10:35:06;2.70;;;2.25;;
59974;SDS011;62136;-35.664;-63.766;2022-09-12T10:40:29;2.33;;;2.05;;
59974;SDS011;62136;-35.664;-63.766;2022-09-12T10:42:59;2.63;;;2.05;;
59974;SDS011;62136;-35.664;-63.766;2022-09-12T10:45:35;2.40;;;1.80;;
59974;SDS011;62136;-35.664;-63.766;2022-09-12T10:50:50;2.53;;;1.98;;
59974;SDS011;62136;-35.664;-63.766;2022-09-12T10:53:19;2.80;;;2.13;;
59974;SDS011;62136;-35.664;-63.766;2022-09-12T10:56:11;2.95;;;1.90;;
59974;SDS011;62136;-35.664;-63.766;2022-09-12T11:04:19;2.28;;;2.08;;
59974;SDS011;62136;-35.664;-63.766;2022-09-12T11:15:37;4.95;;;2.17;;
59974;SDS011;62136;-35.664;-63.766;2022-09-12T11:23:49;4.88;;;2.20;;
59974;SDS011;62136;-35.664;-63.766;2022-09-12T11:26:33;4.65;;;2.33;;
59974;SDS011;62136;-35.664;-63.766;2022-09-12T11:29:27;3.42;;;2.42;;
59974;SDS011;62136;-35.664;-63.766;2022-09-12T11:45:52;5.00;;;2.55;;
59974;SDS011;62136;-35.664;-63.766;2022-09-12T11:48:43;7.15;;;3.05;;
59974;SDS011;62136;-35.664;-63.766;2022-09-12T11:51:15;8.73;;;3.17;;
59974;SDS011;62136;-35.664;-63.766;2022-09-12T11:53:45;6.85;;;3.53;;
59974;SDS011;62136;-35.664;-63.766;2022-09-12T11:56:21;13.55;;;3.78;;
59974;SDS011;62136;-35.664;-63.766;2022-09-12T11:58:50;6.03;;;2.88;;
59974;SDS011;62136;-35.664;-63.766;2022-09-12T12:01:34;8.20;;;3.22;;
59974;SDS011;62136;-35.664;-63.766;2022-09-12T12:04:07;12.65;;;4.10;;
59974;SDS011;62136;-35.664;-63.766;2022-09-12T12:09:44;10.18;;;4.50;;
59974;SDS011;62136;-35.664;-63.766;2022-09-12T12:12:18;10.52;;;3.88;;
59974;SDS011;62136;-35.664;-63.766;2022-09-12T12:14:49;7.35;;;3.53;;
59974;SDS011;62136;-35.664;-63.766;2022-09-12T12:17:20;10.05;;;4.30;;
59974;SDS011;62136;-35.664;-63.766;2022-09-12T12:19:58;11.05;;;4.38;;
59974;SDS011;62136;-35.664;-63.766;2022-09-12T12:22:29;10.43;;;4.78;;
59974;SDS011;62136;-35.664;-63.766;2022-09-12T12:30:57;9.93;;;5.22;;
59974;SDS011;62136;-35.664;-63.766;2022-09-12T12:43:47;9.65;;;4.70;;
59974;SDS011;62136;-35.664;-63.766;2022-09-12T12:46:16;9.98;;;4.13;;
59974;SDS011;62136;-35.664;-63.766;2022-09-12T12:51:54;10.43;;;4.20;;
59974;SDS011;62136;-35.664;-63.766;2022-09-12T12:57:17;12.00;;;4.53;;
59974;SDS011;62136;-35.664;-63.766;2022-09-12T12:59:55;12.35;;;4.20;;
59974;SDS011;62136;-35.664;-63.766;2022-09-12T13:02:31;9.73;;;4.65;;
59974;SDS011;62136;-35.664;-63.766;2022-09-12T13:05:12;9.43;;;4.10;;
59974;SDS011;62136;-35.664;-63.766;2022-09-12T13:10:25;11.00;;;4.13;;
59974;SDS011;62136;-35.664;-63.766;2022-09-12T13:12:58;7.63;;;3.78;;
59974;SDS011;62136;-35.664;-63.766;2022-09-12T13:18:09;8.93;;;4.30;;
59974;SDS011;62136;-35.664;-63.766;2022-09-12T13:20:47;10.43;;;4.15;;
59974;SDS011;62136;-35.664;-63.766;2022-09-12T13:23:23;9.05;;;4.13;;
59974;SDS011;62136;-35.664;-63.766;2022-09-12T13:25:56;5.97;;;3.55;;
59974;SDS011;62136;-35.664;-63.766;2022-09-12T13:28:25;10.80;;;3.95;;
59974;SDS011;62136;-35.664;-63.766;2022-09-12T13:31:00;8.38;;;3.95;;
59974;SDS011;62136;-35.664;-63.766;2022-09-12T13:39:12;9.45;;;3.58;;
59974;SDS011;62136;-35.664;-63.766;2022-09-12T13:44:43;9.20;;;3.70;;
59974;SDS011;62136;-35.664;-63.766;2022-09-12T13:47:27;5.70;;;3.25;;
59974;SDS011;62136;-35.664;-63.766;2022-09-12T13:49:58;9.10;;;3.53;;
59974;SDS011;62136;-35.664;-63.766;2022-09-12T13:52:28;8.82;;;3.55;;
59974;SDS011;62136;-35.664;-63.766;2022-09-12T13:54:58;10.00;;;4.10;;
59974;SDS011;62136;-35.664;-63.766;2022-09-12T13:57:32;8.57;;;3.88;;
59974;SDS011;62136;-35.664;-63.766;2022-09-12T14:00:14;7.10;;;3.72;;
59974;SDS011;62136;-35.664;-63.766;2022-09-12T14:02:44;10.10;;;3.78;;
59974;SDS011;62136;-35.664;-63.766;2022-09-12T14:05:18;10.40;;;3.90;;
59974;SDS011;62136;-35.664;-63.766;2022-09-12T14:08:02;12.70;;;3.97;;
59974;SDS011;62136;-35.664;-63.766;2022-09-12T14:10:34;10.23;;;3.22;;
59974;SDS011;62136;-35.664;-63.766;2022-09-12T14:13:20;9.27;;;3.58;;
59974;SDS011;62136;-35.664;-63.766;2022-09-12T14:18:22;9.50;;;3.30;;
59974;SDS011;62136;-35.664;-63.766;2022-09-12T14:20:55;9.48;;;3.55;;
59974;SDS011;62136;-35.664;-63.766;2022-09-12T14:23:26;11.77;;;3.75;;
59974;SDS011;62136;-35.664;-63.766;2022-09-12T14:25:57;10.35;;;3.33;;
59974;SDS011;62136;-35.664;-63.766;2022-09-12T14:28:30;7.47;;;2.97;;
59974;SDS011;62136;-35.664;-63.766;2022-09-12T14:33:48;7.72;;;3.38;;
59974;SDS011;62136;-35.664;-63.766;2022-09-12T14:39:02;8.73;;;3.60;;
59974;SDS011;62136;-35.664;-63.766;2022-09-12T14:41:32;9.20;;;2.85;;
59974;SDS011;62136;-35.664;-63.766;2022-09-12T14:44:04;6.75;;;3.50;;
59974;SDS011;62136;-35.664;-63.766;2022-09-12T14:46:44;8.32;;;3.10;;
59974;SDS011;62136;-35.664;-63.766;2022-09-12T14:49:46;8.15;;;3.33;;
59974;SDS011;62136;-35.664;-63.766;2022-09-12T14:52:07;8.52;;;3.58;;
59974;SDS011;62136;-35.664;-63.766;2022-09-12T14:57:47;8.07;;;3.08;;
59974;SDS011;62136;-35.664;-63.766;2022-09-12T15:00:31;10.68;;;2.67;;
59974;SDS011;62136;-35.664;-63.766;2022-09-12T15:03:14;9.73;;;3.50;;
59974;SDS011;62136;-35.664;-63.766;2022-09-12T15:05:50;7.63;;;3.10;;
59974;SDS011;62136;-35.664;-63.766;2022-09-12T15:08:17;9.73;;;3.40;;
59974;SDS011;62136;-35.664;-63.766;2022-09-12T15:10:49;6.97;;;2.80;;
59974;SDS011;62136;-35.664;-63.766;2022-09-12T15:13:18;8.50;;;3.08;;
59974;SDS011;62136;-35.664;-63.766;2022-09-12T15:15:50;7.05;;;2.85;;
59974;SDS011;62136;-35.664;-63.766;2022-09-12T15:18:23;9.38;;;2.70;;
59974;SDS011;62136;-35.664;-63.766;2022-09-12T15:20:59;9.52;;;3.53;;
59974;SDS011;62136;-35.664;-63.766;2022-09-12T15:26:19;10.88;;;3.03;;
59974;SDS011;62136;-35.664;-63.766;2022-09-12T15:28:48;9.43;;;3.13;;
59974;SDS011;62136;-35.664;-63.766;2022-09-12T15:31:26;11.35;;;2.92;;
59974;SDS011;62136;-35.664;-63.766;2022-09-12T15:33:55;11.38;;;3.28;;
59974;SDS011;62136;-35.664;-63.766;2022-09-12T15:36:24;12.07;;;3.35;;
59974;SDS011;62136;-35.664;-63.766;2022-09-12T15:38:53;10.73;;;3.20;;
59974;SDS011;62136;-35.664;-63.766;2022-09-12T15:43:49;7.43;;;2.75;;
59974;SDS011;62136;-35.664;-63.766;2022-09-12T15:46:17;13.20;;;2.55;;
59974;SDS011;62136;-35.664;-63.766;2022-09-12T15:48:45;9.02;;;2.92;;
59974;SDS011;62136;-35.664;-63.766;2022-09-12T15:51:13;10.75;;;2.80;;
59974;SDS011;62136;-35.664;-63.766;2022-09-12T15:53:44;6.10;;;2.30;;
59974;SDS011;62136;-35.664;-63.766;2022-09-12T15:56:14;7.13;;;2.60;;
59974;SDS011;62136;-35.664;-63.766;2022-09-12T15:58:43;7.10;;;2.60;;
59974;SDS011;62136;-35.664;-63.766;2022-09-12T16:01:11;8.32;;;2.92;;
59974;SDS011;62136;-35.664;-63.766;2022-09-12T16:03:39;8.73;;;2.65;;
59974;SDS011;62136;-35.664;-63.766;2022-09-12T16:06:07;6.15;;;2.38;;
59974;SDS011;62136;-35.664;-63.766;2022-09-12T16:08:35;7.15;;;2.35;;
59974;SDS011;62136;-35.664;-63.766;2022-09-12T16:11:04;7.07;;;2.80;;
59974;SDS011;62136;-35.664;-63.766;2022-09-12T16:13:37;6.68;;;3.00;;
59974;SDS011;62136;-35.664;-63.766;2022-09-12T16:16:05;9.30;;;2.60;;
59974;SDS011;62136;-35.664;-63.766;2022-09-12T16:18:32;4.95;;;1.88;;
59974;SDS011;62136;-35.664;-63.766;2022-09-12T16:20:59;6.60;;;2.70;;
59974;SDS011;62136;-35.664;-63.766;2022-09-12T16:23:26;9.48;;;2.33;;
59974;SDS011;62136;-35.664;-63.766;2022-09-12T16:26:01;7.88;;;2.38;;
59974;SDS011;62136;-35.664;-63.766;2022-09-12T16:28:30;13.27;;;3.30;;
59974;SDS011;62136;-35.664;-63.766;2022-09-12T16:30:58;8.30;;;2.92;;
59974;SDS011;62136;-35.664;-63.766;2022-09-12T16:33:28;8.48;;;2.88;;
59974;SDS011;62136;-35.664;-63.766;2022-09-12T16:36:03;7.55;;;2.35;;
59974;SDS011;62136;-35.664;-63.766;2022-09-12T16:38:39;7.47;;;2.45;;
59974;SDS011;62136;-35.664;-63.766;2022-09-12T16:41:16;7.90;;;2.15;;
59974;SDS011;62136;-35.664;-63.766;2022-09-12T16:43:45;7.45;;;2.30;;
59974;SDS011;62136;-35.664;-63.766;2022-09-12T16:46:14;9.43;;;2.47;;
59974;SDS011;62136;-35.664;-63.766;2022-09-12T16:48:43;5.55;;;2.03;;
59974;SDS011;62136;-35.664;-63.766;2022-09-12T16:51:14;8.25;;;2.65;;
59974;SDS011;62136;-35.664;-63.766;2022-09-12T16:53:46;9.02;;;2.30;;
59974;SDS011;62136;-35.664;-63.766;2022-09-12T16:56:13;8.98;;;2.05;;
59974;SDS011;62136;-35.664;-63.766;2022-09-12T16:58:41;7.20;;;2.08;;
59974;SDS011;62136;-35.664;-63.766;2022-09-12T17:01:13;7.70;;;2.30;;
59974;SDS011;62136;-35.664;-63.766;2022-09-12T17:03:41;5.13;;;2.22;;
59974;SDS011;62136;-35.664;-63.766;2022-09-12T17:06:15;7.40;;;2.63;;
59974;SDS011;62136;-35.664;-63.766;2022-09-12T17:08:49;11.50;;;2.33;;
59974;SDS011;62136;-35.664;-63.766;2022-09-12T17:11:21;17.70;;;3.20;;
59974;SDS011;62136;-35.664;-63.766;2022-09-12T17:13:53;31.00;;;4.63;;
59974;SDS011;62136;-35.664;-63.766;2022-09-12T17:16:21;23.42;;;4.47;;
59974;SDS011;62136;-35.664;-63.766;2022-09-12T17:18:50;25.02;;;5.82;;
59974;SDS011;62136;-35.664;-63.766;2022-09-12T17:21:18;33.45;;;6.65;;
59974;SDS011;62136;-35.664;-63.766;2022-09-12T17:23:46;28.83;;;5.55;;
59974;SDS011;62136;-35.664;-63.766;2022-09-12T17:26:13;27.05;;;5.43;;
59974;SDS011;62136;-35.664;-63.766;2022-09-12T17:28:40;38.67;;;5.18;;
59974;SDS011;62136;-35.664;-63.766;2022-09-12T17:31:09;26.38;;;4.28;;
59974;SDS011;62136;-35.664;-63.766;2022-09-12T17:33:37;18.48;;;3.75;;
59974;SDS011;62136;-35.664;-63.766;2022-09-12T17:36:06;16.42;;;3.22;;
59974;SDS011;62136;-35.664;-63.766;2022-09-12T17:38:39;24.17;;;3.42;;
59974;SDS011;62136;-35.664;-63.766;2022-09-12T17:41:12;18.85;;;3.60;;
59974;SDS011;62136;-35.664;-63.766;2022-09-12T17:43:42;15.32;;;3.03;;
59974;SDS011;62136;-35.664;-63.766;2022-09-12T17:46:12;16.42;;;3.33;;
59974;SDS011;62136;-35.664;-63.766;2022-09-12T17:48:39;16.48;;;3.35;;